createdAt,value
2018-02-09T00:01:10.695Z,-2.71
2018-02-09T00:03:38.231Z,-2.74
2018-02-09T00:06:05.844Z,-2.64
2018-02-09T00:08:33.396Z,-2.65
2018-02-09T00:11:00.939Z,-2.51
2018-02-09T00:13:28.587Z,-2.63
2018-02-09T00:15:56.115Z,-2.65
2018-02-09T00:18:23.674Z,-2.83
2018-02-09T00:20:51.225Z,-2.85
2018-02-09T00:23:18.758Z,-2.89
2018-02-09T00:25:46.301Z,-2.89
2018-02-09T00:28:13.824Z,-2.99
2018-02-09T00:30:41.434Z,-2.97
2018-02-09T00:33:08.996Z,-2.99
2018-02-09T00:35:36.539Z,-3.00
2018-02-09T00:38:04.133Z,-2.69
2018-02-09T00:40:31.740Z,-2.86
2018-02-09T00:42:59.306Z,-3.03
2018-02-09T00:45:26.892Z,-3.13
2018-02-09T00:47:54.453Z,-3.06
2018-02-09T00:50:22.027Z,-2.79
2018-02-09T00:52:49.672Z,-2.96
2018-02-09T00:55:17.255Z,-2.88
2018-02-09T00:57:44.815Z,-2.99
2018-02-09T01:00:12.372Z,-2.93
2018-02-09T01:02:39.916Z,-2.84
2018-02-09T01:05:07.473Z,-2.85
2018-02-09T01:07:34.992Z,-2.75
2018-02-09T01:10:02.580Z,-2.81
2018-02-09T01:12:30.184Z,-2.90
2018-02-09T01:14:57.713Z,-2.83
2018-02-09T01:17:25.333Z,-2.72
2018-02-09T01:19:52.898Z,-2.71
2018-02-09T01:22:20.445Z,-2.76
2018-02-09T01:24:48.018Z,-2.76
2018-02-09T01:27:15.590Z,-2.80
2018-02-09T01:29:43.144Z,-2.78
2018-02-09T01:32:10.663Z,-2.95
2018-02-09T01:34:38.255Z,-2.88
2018-02-09T01:37:05.804Z,-2.78
2018-02-09T01:39:34.121Z,-2.82
2018-02-09T01:42:01.880Z,-2.79
2018-02-09T01:44:29.449Z,-2.78
2018-02-09T01:46:57.000Z,-2.83
2018-02-09T01:49:24.518Z,-2.69
2018-02-09T01:51:52.088Z,-2.82
2018-02-09T01:54:19.611Z,-2.84
2018-02-09T01:56:47.227Z,-2.82
2018-02-09T01:59:14.796Z,-3.03
2018-02-09T02:01:42.354Z,-3.18
2018-02-09T02:04:09.938Z,-2.97
2018-02-09T02:06:37.485Z,-3.10
2018-02-09T02:09:05.116Z,-3.10
2018-02-09T02:11:33.518Z,-3.04
2018-02-09T02:14:01.073Z,-3.17
2018-02-09T02:16:28.803Z,-2.99
2018-02-09T02:18:56.361Z,-3.16
2018-02-09T02:21:23.913Z,-3.09
2018-02-09T02:23:51.483Z,-3.07
2018-02-09T02:26:19.059Z,-3.19
2018-02-09T02:28:46.652Z,-3.33
2018-02-09T02:31:14.189Z,-3.06
2018-02-09T02:33:41.828Z,-3.15
2018-02-09T02:36:09.398Z,-3.06
2018-02-09T02:38:36.961Z,-2.90
2018-02-09T02:41:04.519Z,-2.97
2018-02-09T02:43:32.150Z,-2.96
2018-02-09T02:45:59.709Z,-2.82
2018-02-09T02:48:27.275Z,-2.96
2018-02-09T02:50:54.860Z,-2.79
2018-02-09T02:53:22.420Z,-2.82
2018-02-09T02:55:50.008Z,-2.77
2018-02-09T02:58:17.575Z,-2.86
2018-02-09T03:00:45.230Z,-2.76
2018-02-09T03:03:12.785Z,-2.95
2018-02-09T03:05:40.368Z,-2.84
2018-02-09T03:08:07.926Z,-2.71
2018-02-09T03:10:35.499Z,-2.78
2018-02-09T03:13:03.379Z,-2.77
2018-02-09T03:15:30.909Z,-2.77
2018-02-09T03:17:58.446Z,-3.00
2018-02-09T03:20:26.057Z,-2.75
2018-02-09T03:22:53.689Z,-2.79
2018-02-09T03:25:21.240Z,-2.95
2018-02-09T03:27:49.164Z,-3.01
2018-02-09T03:30:16.714Z,-2.97
2018-02-09T03:32:44.633Z,-3.06
2018-02-09T03:35:12.216Z,-3.00
2018-02-09T03:37:39.773Z,-3.03
2018-02-09T03:40:07.291Z,-3.00
2018-02-09T03:42:34.849Z,-3.06
2018-02-09T03:45:02.469Z,-3.00
2018-02-09T03:47:30.026Z,-2.99
2018-02-09T03:49:57.625Z,-2.99
2018-02-09T03:52:25.156Z,-3.13
2018-02-09T03:54:52.694Z,-3.15
2018-02-09T03:57:20.437Z,-3.22
2018-02-09T03:59:48.112Z,-3.19
2018-02-09T04:02:15.640Z,-3.06
2018-02-09T04:04:43.210Z,-3.11
2018-02-09T04:07:10.796Z,-3.28
2018-02-09T04:09:38.327Z,-3.13
2018-02-09T04:12:05.876Z,-2.98
2018-02-09T04:14:33.456Z,-3.00
2018-02-09T04:17:01.017Z,-3.17
2018-02-09T04:19:28.605Z,-3.22
2018-02-09T04:21:56.128Z,-3.20
2018-02-09T04:24:23.683Z,-3.23
2018-02-09T04:26:51.627Z,-2.99
2018-02-09T04:29:19.184Z,-3.10
2018-02-09T04:31:46.749Z,-3.26
2018-02-09T04:34:14.315Z,-3.15
2018-02-09T04:36:41.834Z,-3.20
2018-02-09T04:39:09.436Z,-3.18
2018-02-09T04:41:36.967Z,-3.25
2018-02-09T04:44:04.777Z,-3.34
2018-02-09T04:46:32.359Z,-3.46
2018-02-09T04:48:59.912Z,-3.52
2018-02-09T04:51:27.516Z,-3.42
2018-02-09T04:53:55.082Z,-3.37
2018-02-09T04:56:22.658Z,-3.44
2018-02-09T04:58:50.235Z,-3.34
2018-02-09T05:01:17.820Z,-3.31
2018-02-09T05:03:45.366Z,-3.40
2018-02-09T05:06:13.350Z,-3.37
2018-02-09T05:08:40.871Z,-3.15
2018-02-09T05:11:08.401Z,-3.41
2018-02-09T05:13:36.221Z,-3.29
2018-02-09T05:16:03.751Z,-3.22
2018-02-09T05:18:31.349Z,-3.29
2018-02-09T05:20:58.899Z,-3.37
2018-02-09T05:23:26.468Z,-3.31
2018-02-09T05:25:54.094Z,-3.34
2018-02-09T05:28:21.660Z,-3.29
2018-02-09T05:30:49.226Z,-3.39
2018-02-09T05:33:16.820Z,-3.25
2018-02-09T05:35:44.342Z,-3.31
2018-02-09T05:38:11.887Z,-3.20
2018-02-09T05:40:39.501Z,-3.01
2018-02-09T05:43:07.052Z,-3.00
2018-02-09T05:45:34.637Z,-2.91
2018-02-09T05:48:02.218Z,-3.08
2018-02-09T05:50:29.791Z,-3.13
2018-02-09T05:52:57.402Z,-3.10
2018-02-09T05:55:25.053Z,-2.98
2018-02-09T05:57:52.589Z,-3.07
2018-02-09T06:00:20.157Z,-3.17
2018-02-09T06:02:47.724Z,-3.18
2018-02-09T06:05:15.684Z,-3.19
2018-02-09T06:07:43.222Z,-2.91
2018-02-09T06:10:10.821Z,-3.03
2018-02-09T06:12:38.402Z,-2.97
2018-02-09T06:15:05.979Z,-3.06
2018-02-09T06:17:33.556Z,-3.10
2018-02-09T06:20:01.103Z,-3.12
2018-02-09T06:22:28.684Z,-3.13
2018-02-09T06:24:56.455Z,-2.90
2018-02-09T06:27:24.341Z,-2.99
2018-02-09T06:29:51.877Z,-3.04
2018-02-09T06:32:19.396Z,-2.95
2018-02-09T06:34:46.945Z,-2.94
2018-02-09T06:37:14.503Z,-2.97
2018-02-09T06:39:42.083Z,-3.04
2018-02-09T06:42:09.631Z,-3.07
2018-02-09T06:44:37.155Z,-2.96
2018-02-09T06:47:04.728Z,-2.86
2018-02-09T06:49:32.271Z,-2.86
2018-02-09T06:51:59.800Z,-2.85
2018-02-09T06:54:27.381Z,-2.82
2018-02-09T06:56:54.943Z,-2.78
2018-02-09T06:59:22.529Z,-2.73
2018-02-09T07:01:50.146Z,-2.65
2018-02-09T07:04:17.690Z,-2.59
2018-02-09T07:06:45.282Z,-2.55
2018-02-09T07:09:12.808Z,-2.52
2018-02-09T07:11:40.841Z,-2.51
2018-02-09T07:14:08.527Z,-2.52
2018-02-09T07:16:36.072Z,-2.48
2018-02-09T07:19:04.007Z,-2.38
2018-02-09T07:21:31.527Z,-2.36
2018-02-09T07:23:59.067Z,-2.37
2018-02-09T07:26:26.648Z,-2.33
2018-02-09T07:28:54.246Z,-2.21
2018-02-09T07:31:21.790Z,-2.21
2018-02-09T07:33:49.421Z,-2.16
2018-02-09T07:36:16.954Z,-2.04
2018-02-09T07:38:44.514Z,-2.04
2018-02-09T07:41:12.142Z,-1.92
2018-02-09T07:43:39.698Z,-1.87
2018-02-09T07:46:07.228Z,-1.87
2018-02-09T07:48:34.779Z,-1.68
2018-02-09T07:51:02.329Z,-1.71
2018-02-09T07:53:29.885Z,-1.74
2018-02-09T07:55:57.576Z,-1.70
2018-02-09T07:58:25.146Z,-1.59
2018-02-09T08:00:52.743Z,-1.56
2018-02-09T08:03:20.266Z,-1.39
2018-02-09T08:05:47.816Z,-1.43
2018-02-09T08:08:15.446Z,-1.39
2018-02-09T08:10:42.989Z,-1.32
2018-02-09T08:13:10.791Z,-1.28
2018-02-09T08:15:38.335Z,-1.24
2018-02-09T08:18:06.281Z,-1.19
2018-02-09T08:20:33.808Z,-1.02
2018-02-09T08:23:01.429Z,-0.97
2018-02-09T08:25:28.991Z,-0.93
2018-02-09T08:27:56.634Z,-1.02
2018-02-09T08:30:24.205Z,-0.93
2018-02-09T08:32:51.773Z,-0.92
2018-02-09T08:35:19.356Z,-0.75
2018-02-09T08:37:46.880Z,-0.70
2018-02-09T08:40:14.597Z,-0.78
2018-02-09T08:42:42.156Z,-0.74
2018-02-09T08:45:09.739Z,-0.59
2018-02-09T08:47:37.271Z,-0.70
2018-02-09T08:50:04.870Z,-0.64
2018-02-09T08:52:32.458Z,-0.50
2018-02-09T08:55:00.140Z,-0.28
2018-02-09T08:57:27.927Z,-0.42
2018-02-09T08:59:55.494Z,-0.08
2018-02-09T09:02:23.087Z,-0.03
2018-02-09T09:04:50.658Z,-0.14
2018-02-09T09:07:18.247Z,-0.05
2018-02-09T09:09:45.820Z,0.19
2018-02-09T09:12:13.354Z,0.10
2018-02-09T09:14:41.042Z,0.05
2018-02-09T09:17:08.572Z,0.24
2018-02-09T09:19:36.147Z,0.29
2018-02-09T09:22:03.703Z,0.42
2018-02-09T09:24:31.228Z,0.40
2018-02-09T09:26:58.984Z,0.62
2018-02-09T09:29:26.532Z,0.71
2018-02-09T09:31:54.505Z,0.46
2018-02-09T09:34:22.020Z,1.10
2018-02-09T09:36:49.535Z,0.93
2018-02-09T09:39:17.104Z,0.96
2018-02-09T09:41:46.692Z,1.01
2018-02-09T09:44:14.602Z,0.95
2018-02-09T09:46:42.161Z,1.19
2018-02-09T09:49:09.719Z,1.07
2018-02-09T09:51:37.274Z,0.99
2018-02-09T09:54:04.933Z,1.15
2018-02-09T09:56:32.540Z,1.17
2018-02-09T09:59:00.098Z,1.15
2018-02-09T10:01:31.635Z,1.44
2018-02-09T10:03:59.154Z,1.53
2018-02-09T10:06:26.700Z,1.35
2018-02-09T10:08:54.304Z,1.56
2018-02-09T10:11:21.849Z,1.52
2018-02-09T10:13:49.380Z,1.60
2018-02-09T10:16:17.353Z,1.85
2018-02-09T10:18:44.895Z,1.39
2018-02-09T10:21:12.444Z,1.48
2018-02-09T10:23:40.000Z,1.51
2018-02-09T10:26:08.973Z,1.55
2018-02-09T10:28:36.551Z,1.23
2018-02-09T10:31:04.108Z,1.44
2018-02-09T10:33:32.019Z,1.44
2018-02-09T10:35:59.543Z,1.61
2018-02-09T10:38:27.070Z,1.81
2018-02-09T10:40:54.644Z,1.80
2018-02-09T10:43:22.187Z,1.63
2018-02-09T10:45:49.737Z,1.80
2018-02-09T10:48:17.289Z,1.79
2018-02-09T10:50:44.915Z,2.03
2018-02-09T10:53:12.470Z,2.00
2018-02-09T10:55:40.020Z,2.16
2018-02-09T10:58:07.585Z,2.34
2018-02-09T11:00:40.832Z,2.47
2018-02-09T11:03:08.416Z,2.46
2018-02-09T11:05:35.974Z,2.45
2018-02-09T11:08:03.520Z,2.43
2018-02-09T11:10:33.858Z,2.37
2018-02-09T11:13:07.128Z,2.95
2018-02-09T11:15:34.673Z,2.18
2018-02-09T11:18:02.246Z,2.32
2018-02-09T11:20:29.772Z,2.76
2018-02-09T11:22:57.463Z,3.07
2018-02-09T11:25:25.127Z,2.74
2018-02-09T11:27:52.763Z,2.79
2018-02-09T11:30:20.284Z,2.72
2018-02-09T11:32:47.809Z,2.84
2018-02-09T11:35:15.850Z,2.64
2018-02-09T11:37:46.178Z,2.88
2018-02-09T11:40:13.744Z,2.78
2018-02-09T11:42:41.749Z,3.14
2018-02-09T11:45:09.279Z,3.39
2018-02-09T11:47:36.885Z,2.90
2018-02-09T11:50:04.427Z,3.20
2018-02-09T11:52:31.948Z,3.45
2018-02-09T11:54:59.548Z,3.52
2018-02-09T11:57:27.092Z,3.11
2018-02-09T11:59:54.728Z,3.35
2018-02-09T12:02:22.532Z,3.07
2018-02-09T12:04:50.212Z,3.09
2018-02-09T12:07:17.741Z,3.48
2018-02-09T12:09:45.297Z,3.41
2018-02-09T12:12:12.854Z,3.65
2018-02-09T12:14:40.435Z,3.30
2018-02-09T12:17:07.961Z,2.90
2018-02-09T12:19:35.536Z,3.07
2018-02-09T12:22:03.092Z,3.16
2018-02-09T12:24:30.630Z,2.75
2018-02-09T12:26:58.901Z,3.10
2018-02-09T12:29:26.550Z,3.01
2018-02-09T12:31:54.130Z,2.95
2018-02-09T12:34:21.652Z,3.12
2018-02-09T12:36:49.267Z,3.03
2018-02-09T12:39:16.932Z,3.23
2018-02-09T12:41:44.536Z,3.30
2018-02-09T12:44:12.087Z,3.36
2018-02-09T12:46:39.622Z,3.23
2018-02-09T12:49:07.266Z,3.21
2018-02-09T12:51:34.790Z,3.04
2018-02-09T12:54:02.308Z,3.44
2018-02-09T12:56:29.862Z,3.43
2018-02-09T12:58:57.400Z,3.78
2018-02-09T13:01:25.345Z,3.42
2018-02-09T13:03:52.876Z,3.31
2018-02-09T13:06:21.452Z,3.05
2018-02-09T13:08:49.223Z,3.08
2018-02-09T13:11:17.094Z,3.29
2018-02-09T13:13:44.620Z,3.50
2018-02-09T13:16:12.183Z,3.18
2018-02-09T13:18:48.596Z,3.22
2018-02-09T13:21:16.185Z,3.54
2018-02-09T13:23:55.746Z,3.29
2018-02-09T13:26:23.353Z,3.73
2018-02-09T13:28:59.879Z,3.63
2018-02-09T13:31:27.482Z,3.78
2018-02-09T13:33:55.067Z,3.99
2018-02-09T13:39:29.550Z,3.75
2018-02-09T13:41:57.152Z,3.61
2018-02-09T13:44:24.715Z,3.16
2018-02-09T13:46:52.260Z,3.22
2018-02-09T13:49:19.876Z,3.16
2018-02-09T13:51:47.435Z,3.19
2018-02-09T13:54:15.004Z,3.12
2018-02-09T13:56:42.628Z,3.20
2018-02-09T13:59:10.295Z,3.18
2018-02-09T14:01:37.837Z,3.31
2018-02-09T14:04:05.382Z,3.42
2018-02-09T14:06:32.988Z,3.67
2018-02-09T14:09:00.861Z,3.59
2018-02-09T14:11:28.416Z,3.60
2018-02-09T14:13:56.008Z,3.57
2018-02-09T14:16:23.915Z,3.67
2018-02-09T14:18:51.450Z,3.78
2018-02-09T14:21:19.006Z,3.74
2018-02-09T14:23:46.620Z,3.74
2018-02-09T14:26:14.157Z,3.50
2018-02-09T14:28:41.708Z,3.47
2018-02-09T14:31:09.245Z,3.63
2018-02-09T14:33:36.801Z,3.43
2018-02-09T14:36:04.392Z,3.25
2018-02-09T14:38:31.988Z,3.02
2018-02-09T14:40:59.593Z,2.99
2018-02-09T14:43:27.177Z,2.98
2018-02-09T14:45:54.753Z,3.00
2018-02-09T14:48:22.376Z,3.01
2018-02-09T14:50:49.929Z,2.76
2018-02-09T14:53:17.452Z,2.56
2018-02-09T14:55:45.387Z,2.67
2018-02-09T14:58:13.031Z,2.65
2018-02-09T15:00:40.575Z,2.63
2018-02-09T15:03:08.254Z,2.47
2018-02-09T15:05:35.797Z,2.46
2018-02-09T15:08:03.324Z,2.49
2018-02-09T15:10:30.900Z,2.48
2018-02-09T15:12:58.433Z,2.51
2018-02-09T15:15:26.012Z,2.67
2018-02-09T15:17:53.705Z,2.56
2018-02-09T15:20:21.268Z,2.77
2018-02-09T15:22:48.812Z,2.84
2018-02-09T15:25:16.392Z,3.13
2018-02-09T15:27:43.950Z,2.80
2018-02-09T15:30:11.500Z,2.78
2018-02-09T15:32:39.118Z,2.63
2018-02-09T15:35:07.096Z,2.66
2018-02-09T15:37:34.796Z,2.55
2018-02-09T15:40:02.522Z,2.33
2018-02-09T15:42:30.092Z,2.24
2018-02-09T15:44:57.665Z,2.26
2018-02-09T15:47:25.212Z,2.30
2018-02-09T15:49:52.739Z,2.37
2018-02-09T15:52:20.637Z,2.34
2018-02-09T15:54:48.185Z,2.20
2018-02-09T15:57:15.729Z,2.07
2018-02-09T15:59:43.295Z,2.03
2018-02-09T16:02:10.863Z,2.06
2018-02-09T16:04:38.416Z,2.04
2018-02-09T16:07:05.959Z,2.23
2018-02-09T16:09:33.501Z,2.22
2018-02-09T16:12:01.106Z,2.22
2018-02-09T16:14:28.652Z,2.15
2018-02-09T16:16:56.197Z,2.26
2018-02-09T16:19:23.757Z,2.62
2018-02-09T16:21:51.290Z,2.38
2018-02-09T16:24:18.837Z,2.57
2018-02-09T16:26:46.374Z,2.46
2018-02-09T16:29:14.165Z,2.53
2018-02-09T16:31:41.732Z,2.46
2018-02-09T16:34:10.985Z,2.24
2018-02-09T16:36:38.955Z,1.81
2018-02-09T16:39:06.513Z,1.64
2018-02-09T16:41:34.051Z,1.68
2018-02-09T16:44:01.656Z,1.64
2018-02-09T16:46:29.245Z,1.58
2018-02-09T16:48:56.795Z,1.56
2018-02-09T16:51:24.376Z,1.58
2018-02-09T16:53:51.937Z,1.52
2018-02-09T16:56:19.540Z,1.54
2018-02-09T16:58:47.181Z,1.70
2018-02-09T17:01:14.759Z,1.48
2018-02-09T17:03:43.014Z,1.42
2018-02-09T17:06:10.547Z,1.30
2018-02-09T17:08:38.088Z,1.32
2018-02-09T17:11:05.843Z,1.47
2018-02-09T17:13:33.342Z,1.39
2018-02-09T17:16:00.915Z,1.26
2018-02-09T17:18:28.525Z,1.31
2018-02-09T17:20:56.087Z,1.39
2018-02-09T17:23:23.675Z,1.25
2018-02-09T17:25:51.292Z,1.30
2018-02-09T17:28:19.088Z,1.23
2018-02-09T17:30:47.053Z,1.18
2018-02-09T17:33:15.300Z,1.19
2018-02-09T17:35:42.823Z,1.24
2018-02-09T17:38:10.341Z,1.16
2018-02-09T17:40:38.292Z,1.15
2018-02-09T17:43:06.227Z,1.13
2018-02-09T17:45:33.791Z,1.15
2018-02-09T17:48:01.780Z,1.24
2018-02-09T17:50:29.362Z,1.29
2018-02-09T17:52:57.056Z,1.25
2018-02-09T17:55:24.979Z,1.13
2018-02-09T17:57:52.624Z,1.07
2018-02-09T18:00:20.218Z,1.09
2018-02-09T18:02:47.828Z,1.12
2018-02-09T18:05:15.360Z,1.19
2018-02-09T18:07:42.970Z,1.10
2018-02-09T18:10:10.589Z,0.99
2018-02-09T18:12:38.502Z,1.02
2018-02-09T18:15:06.132Z,0.92
2018-02-09T18:17:33.662Z,0.87
2018-02-09T18:20:01.227Z,0.86
2018-02-09T18:22:28.770Z,0.81
2018-02-09T18:24:56.357Z,0.73
2018-02-09T18:27:23.899Z,0.68
2018-02-09T18:29:51.828Z,0.65
2018-02-09T18:32:19.369Z,0.62
2018-02-09T18:34:46.909Z,0.66
2018-02-09T18:37:14.476Z,0.58
2018-02-09T18:39:42.164Z,0.49
2018-02-09T18:42:09.726Z,0.44
2018-02-09T18:44:37.300Z,0.37
2018-02-09T18:47:04.874Z,0.35
2018-02-09T18:49:32.412Z,0.35
2018-02-09T18:51:59.990Z,0.33
2018-02-09T18:54:27.616Z,0.39
2018-02-09T18:56:55.168Z,0.46
2018-02-09T18:59:22.705Z,0.45
2018-02-09T19:01:50.308Z,0.38
2018-02-09T19:04:17.891Z,0.38
2018-02-09T19:06:45.587Z,0.38
2018-02-09T19:09:13.108Z,0.25
2018-02-09T19:11:40.702Z,0.24
2018-02-09T19:14:08.295Z,0.07
2018-02-09T19:16:35.976Z,0.01
2018-02-09T19:19:03.882Z,-0.11
2018-02-09T19:21:31.398Z,-0.18
2018-02-09T19:23:58.951Z,-0.22
2018-02-09T19:26:26.503Z,-0.37
2018-02-09T19:28:54.025Z,-0.40
2018-02-09T19:31:21.611Z,-0.52
2018-02-09T19:33:49.145Z,-0.52
2018-02-09T19:36:16.699Z,-0.45
2018-02-09T19:38:44.288Z,-0.47
2018-02-09T19:41:11.827Z,-0.48
2018-02-09T19:43:39.753Z,-0.42
2018-02-09T19:46:07.277Z,-0.47
2018-02-09T19:48:34.854Z,-0.32
2018-02-09T19:51:02.459Z,-0.40
2018-02-09T19:53:30.066Z,-0.48
2018-02-09T19:55:57.622Z,-0.62
2018-02-09T19:58:25.451Z,-0.72
2018-02-09T20:00:53.117Z,-0.70
2018-02-09T20:03:20.937Z,-0.78
2018-02-09T20:05:48.773Z,-0.72
2018-02-09T20:08:16.551Z,-0.84
2018-02-09T20:10:44.229Z,-0.85
2018-02-09T20:13:11.829Z,-0.85
2018-02-09T20:15:39.581Z,-1.06
2018-02-09T20:18:07.163Z,-1.21
2018-02-09T20:20:34.789Z,-1.03
2018-02-09T20:25:29.460Z,-1.10
2018-02-09T20:27:57.091Z,-1.10
2018-02-09T20:30:24.912Z,-1.10
2018-02-09T20:32:52.523Z,-1.26
2018-02-09T20:35:20.164Z,-1.21
2018-02-09T20:37:47.736Z,-1.32
2018-02-09T20:40:15.288Z,-1.12
2018-02-09T20:42:42.905Z,-1.14
2018-02-09T20:45:10.427Z,-1.30
2018-02-09T20:47:37.955Z,-1.32
2018-02-09T20:50:05.536Z,-1.41
2018-02-09T20:52:33.105Z,-1.37
2018-02-09T20:55:00.656Z,-1.22
2018-02-09T20:57:28.334Z,-1.12
2018-02-09T20:59:55.995Z,-0.90
2018-02-09T21:02:24.027Z,-0.87
2018-02-09T21:04:51.643Z,-0.78
2018-02-09T21:07:19.230Z,-0.87
2018-02-09T21:09:46.848Z,-0.84
2018-02-09T21:12:14.387Z,-0.95
2018-02-09T21:14:42.399Z,-1.01
2018-02-09T21:17:09.947Z,-0.97
2018-02-09T21:19:37.530Z,-1.07
2018-02-09T21:22:05.088Z,-1.21
2018-02-09T21:24:32.655Z,-1.25
2018-02-09T21:27:00.577Z,-1.43
2018-02-09T21:29:28.096Z,-1.56
2018-02-09T21:31:55.660Z,-1.58
2018-02-09T21:34:23.203Z,-1.47
2018-02-09T21:36:50.812Z,-1.50
2018-02-09T21:39:18.339Z,-1.60
2018-02-09T21:41:46.175Z,-1.66
2018-02-09T21:44:13.744Z,-1.60
2018-02-09T21:46:41.527Z,-1.46
2018-02-09T21:49:09.136Z,-1.40
2018-02-09T21:51:36.781Z,-1.44
2018-02-09T21:54:04.447Z,-1.49
2018-02-09T21:56:31.979Z,-1.60
2018-02-09T21:58:59.497Z,-1.63
2018-02-09T22:01:27.085Z,-1.84
2018-02-09T22:03:54.607Z,-1.94
2018-02-09T22:06:22.251Z,-1.90
2018-02-09T22:08:49.852Z,-1.98
2018-02-09T22:11:17.418Z,-2.08
2018-02-09T22:13:44.935Z,-2.05
2018-02-09T22:16:12.503Z,-2.09
2018-02-09T22:18:40.177Z,-2.22
2018-02-09T22:21:07.719Z,-2.25
2018-02-09T22:23:35.263Z,-2.21
2018-02-09T22:26:02.818Z,-2.30
2018-02-09T22:28:30.396Z,-2.24
2018-02-09T22:30:57.940Z,-2.23
2018-02-09T22:33:25.524Z,-2.37
2018-02-09T22:35:53.072Z,-2.44
2018-02-09T22:38:20.652Z,-2.43
2018-02-09T22:40:48.205Z,-2.20
2018-02-09T22:43:15.828Z,-2.33
2018-02-09T22:45:43.372Z,-2.37
2018-02-09T22:48:10.900Z,-2.43
2018-02-09T22:50:38.475Z,-2.56
2018-02-09T22:53:06.032Z,-2.58
2018-02-09T22:55:33.634Z,-2.50
2018-02-09T22:58:01.178Z,-2.15
2018-02-09T23:00:28.744Z,-2.54
2018-02-09T23:02:56.362Z,-2.71
2018-02-09T23:05:23.878Z,-2.85
2018-02-09T23:07:51.452Z,-2.53
2018-02-09T23:10:19.002Z,-2.80
2018-02-09T23:12:46.907Z,-2.58
2018-02-09T23:15:14.459Z,-1.98
2018-02-09T23:17:42.016Z,-2.08
2018-02-09T23:20:09.702Z,-2.23
2018-02-09T23:22:37.231Z,-2.21
2018-02-09T23:25:04.778Z,-2.14
2018-02-09T23:27:32.335Z,-2.24
2018-02-09T23:29:59.880Z,-2.30
2018-02-09T23:32:27.475Z,-2.56
2018-02-09T23:34:55.023Z,-2.46
2018-02-09T23:37:22.603Z,-2.45
2018-02-09T23:39:50.155Z,-2.97
2018-02-09T23:42:17.768Z,-3.06
2018-02-09T23:44:45.278Z,-2.67
2018-02-09T23:47:12.808Z,-2.81
2018-02-09T23:49:40.481Z,-3.05
2018-02-09T23:52:08.088Z,-2.97
2018-02-09T23:54:35.640Z,-3.00
2018-02-09T23:57:03.191Z,-3.08
2018-02-09T23:59:30.819Z,-3.20
